Tuesday, July 29, 2014, 8:55 PM EDT

KRDG, Reading Regional Airport

Location: Reading, PA, United States Lat: 40.367
Local Time: 8:55 PM EDT ( 0:55 GMT) Lon: -75.967
Time Zone: US/Eastern Elev: 344 ft

Show me the last for .
Show Decoded

2014-07-29 19:54 METAR KRDG 292354Z 31007KT 10SM BKN090 21/11 A2997 RMK AO2 SLP151 T02060111
                 10239 20206 51015 =
2014-07-29 18:54 METAR KRDG 292254Z 34006KT 10SM FEW050 OVC085 22/12 A2995 =
2014-07-29 17:54 METAR KRDG 292154Z 29008KT 10SM OVC085 22/11 A2994 RMK AO2 SLP140 T02220111 =
2014-07-29 16:54 METAR KRDG 292054Z 32006KT 10SM FEW049 OVC080 23/11 A2992 RMK AO2 SLP135
                 T02280111 51008 =
2014-07-29 15:54 METAR KRDG 291954Z 32005KT 10SM SCT048 BKN060 OVC080 23/11 A2992 RMK AO2 SLP133
                 T02280106 =
2014-07-29 14:54 METAR KRDG 291854Z 32006KT 10SM FEW046 OVC080 23/12 A2991 RMK AO2 SLP131
                 T02330117 =
2014-07-29 13:54 METAR KRDG 291754Z 25006KT 10SM SCT046 BKN075 23/12 A2990 RMK AO2 SLP127
                 T02280117 10228 20172 56005 =
2014-07-29 12:54 METAR KRDG 291654Z 33006KT 10SM SCT055 BKN070 23/12 A2990 RMK AO2 SLP128
                 T02280122 =
2014-07-29 11:54 METAR KRDG 291554Z 30009KT 10SM FEW040 FEW055 BKN075 22/12 A2991 RMK AO2 SLP130
                 T02170122 =
2014-07-29 10:54 METAR KRDG 291454Z 32007KT 10SM FEW029 FEW039 21/13 A2991 RMK AO2 SLP132
                 T02110133 50007 =
2014-07-29 09:54 METAR KRDG 291354Z 10SM FEW024 20/13 A2991 RMK AO2 SLP133 T02000128 =
2014-07-29 08:54 METAR KRDG 291254Z 31006KT 10SM CLR 19/13 A2991 RMK AO2 SLP130 T01940133 =
2014-07-29 07:54 METAR KRDG 291154Z 27006KT 10SM CLR 17/13 A2989 RMK AO2 SLP125 T01720133 10172
                 20150 52014 =
2014-07-29 06:54 METAR KRDG 291054Z 30004KT 10SM CLR 16/13 A2988 RMK AO2 SLP120 T01560128 =
2014-07-29 05:54 METAR KRDG 290954Z 00000KT 10SM BKN031 15/13 A2986 RMK AO2 SLP116 T01500128 =
2014-07-29 04:54 METAR KRDG 290854Z 00000KT 10SM FEW027 16/12 A2985 =
2014-07-29 03:54 METAR KRDG 290754Z 27004KT 10SM CLR 16/13 A2982 RMK AO2 SLP102 T01610128 =
2014-07-29 02:54 METAR KRDG 290654Z 30006KT 10SM CLR 17/13 A2981 RMK AO2 SLP097 T01670128 =
2014-07-29 01:54 METAR KRDG 290554Z 30008KT 10SM FEW032 17/13 A2980 RMK AO2 SLP093 T01720128
                 10206 20172 51003 =
2014-07-29 00:54 METAR KRDG 290454Z 31007KT 10SM CLR 18/13 A2980 RMK AO2 SLP092 T01780128
                 402720172 =
2014-07-28 23:54 METAR KRDG 290354Z 31006KT 10SM CLR 18/14 A2980 RMK AO2 SLP093 T01780139 =
2014-07-28 22:54 METAR KRDG 290254Z 31009KT 10SM FEW100 19/14 A2979 RMK AO2 SLP091 T01940139
                 53027 =
2014-07-28 21:54 METAR KRDG 290154Z 30009KT 10SM FEW055 SCT090 20/14 A2977 =

Support USWX by starting your Amazon purchase here.